Zametcino, Russia
Current Conditions -  °F | °C
As of 7:00 AM on Saturday 01 Nov 2014 (Local Time) from UUOO Reporting Station
Haze Haze  
Wind Chill: 28°   Ceiling: 700
Heat Index: 34°   Visibility: 1.2mi
Dew Point: 32°   Wind: 7mph
Humidity: 93%   Direction: 350°N
Pressure: 29.94"   Gusts: NA
Location:  53.48°N, 42.63°E
Report Text: UUOO 010400Z 35003MPS 2000 BR BKN007 01/M00 Q1014 TEMPO 1100BKN005 RMK 30290155
Loading
Personal Weather Stations






























Interactive Weather Map
Tropical Storm Tracking
New forecast layout! Learn more

10-Day Weather Forecast

Advertisements
Track Severe Weather on mobile